Fontana, California
Current Conditions -  °F | °C
As of 9:53 AM on Thursday 30 Oct 2014 (Local Time) from KONT Reporting Station
Broken Clouds Broken Clouds  
Wind Chill: 71°   Ceiling: 25000
Heat Index: 71°   Visibility: 10mi
Dew Point: 42°   Wind: 5mph
Humidity: 35%   Direction: 110°ESE
Pressure: 30.01"   Gusts: NA
Location:  34.1°N, 117.43°W
Report Text: KONT 301653Z 11004KT 10SM SCT180 BKN250 22/06 A3001 RMK AO2 SLP149 T02170056
Loading
Personal Weather Stations






























Interactive Weather Map
Tropical Storm Tracking
New forecast layout! Learn more

10-Day Weather Forecast

Advertisements
Track Severe Weather on mobile